sensor_id;sensor_type;location;lat;lon;timestamp;P1;durP1;ratioP1;P2;durP2;ratioP2
16784;SDS011;8509;52.178;5.404;2023-07-24T00:01:16;3.60;;;1.70;;
16784;SDS011;8509;52.178;5.404;2023-07-24T00:03:44;3.05;;;1.50;;
16784;SDS011;8509;52.178;5.404;2023-07-24T00:06:10;2.47;;;1.52;;
16784;SDS011;8509;52.178;5.404;2023-07-24T00:08:35;3.90;;;1.38;;
16784;SDS011;8509;52.178;5.404;2023-07-24T00:11:01;2.08;;;1.52;;
16784;SDS011;8509;52.178;5.404;2023-07-24T00:13:30;1.58;;;1.40;;
16784;SDS011;8509;52.178;5.404;2023-07-24T00:15:56;3.58;;;1.85;;
16784;SDS011;8509;52.178;5.404;2023-07-24T00:18:22;1.77;;;1.40;;
16784;SDS011;8509;52.178;5.404;2023-07-24T00:20:48;1.52;;;1.20;;
16784;SDS011;8509;52.178;5.404;2023-07-24T00:23:13;1.38;;;1.27;;
16784;SDS011;8509;52.178;5.404;2023-07-24T00:25:39;2.80;;;1.88;;
16784;SDS011;8509;52.178;5.404;2023-07-24T00:28:05;1.95;;;1.40;;
16784;SDS011;8509;52.178;5.404;2023-07-24T00:30:30;1.58;;;1.23;;
16784;SDS011;8509;52.178;5.404;2023-07-24T00:32:56;2.67;;;1.50;;
16784;SDS011;8509;52.178;5.404;2023-07-24T00:35:21;2.22;;;1.45;;
16784;SDS011;8509;52.178;5.404;2023-07-24T00:37:47;2.40;;;1.58;;
16784;SDS011;8509;52.178;5.404;2023-07-24T00:40:13;1.92;;;1.75;;
16784;SDS011;8509;52.178;5.404;2023-07-24T00:42:38;3.45;;;1.70;;
16784;SDS011;8509;52.178;5.404;2023-07-24T00:45:04;2.03;;;1.75;;
16784;SDS011;8509;52.178;5.404;2023-07-24T00:47:31;2.50;;;1.13;;
16784;SDS011;8509;52.178;5.404;2023-07-24T00:49:57;2.55;;;1.30;;
16784;SDS011;8509;52.178;5.404;2023-07-24T00:52:23;1.63;;;1.25;;
16784;SDS011;8509;52.178;5.404;2023-07-24T00:54:49;2.45;;;1.58;;
16784;SDS011;8509;52.178;5.404;2023-07-24T00:57:15;3.47;;;1.20;;
16784;SDS011;8509;52.178;5.404;2023-07-24T00:59:41;2.53;;;1.65;;
16784;SDS011;8509;52.178;5.404;2023-07-24T01:02:07;1.52;;;1.23;;
16784;SDS011;8509;52.178;5.404;2023-07-24T01:04:33;2.60;;;1.88;;
16784;SDS011;8509;52.178;5.404;2023-07-24T01:06:59;2.40;;;1.65;;
16784;SDS011;8509;52.178;5.404;2023-07-24T01:09:25;1.90;;;1.60;;
16784;SDS011;8509;52.178;5.404;2023-07-24T01:11:52;2.78;;;1.63;;
16784;SDS011;8509;52.178;5.404;2023-07-24T01:14:29;1.88;;;1.52;;
16784;SDS011;8509;52.178;5.404;2023-07-24T01:17:03;2.13;;;1.70;;
16784;SDS011;8509;52.178;5.404;2023-07-24T01:19:35;2.38;;;1.50;;
16784;SDS011;8509;52.178;5.404;2023-07-24T01:25:09;2.08;;;1.42;;
16784;SDS011;8509;52.178;5.404;2023-07-24T01:27:44;2.40;;;1.40;;
16784;SDS011;8509;52.178;5.404;2023-07-24T01:30:11;1.85;;;1.52;;
16784;SDS011;8509;52.178;5.404;2023-07-24T01:32:38;3.30;;;1.70;;
16784;SDS011;8509;52.178;5.404;2023-07-24T01:35:04;4.13;;;1.55;;
16784;SDS011;8509;52.178;5.404;2023-07-24T01:37:31;1.63;;;1.30;;
16784;SDS011;8509;52.178;5.404;2023-07-24T01:39:58;3.13;;;1.52;;
16784;SDS011;8509;52.178;5.404;2023-07-24T01:42:24;1.75;;;1.33;;
16784;SDS011;8509;52.178;5.404;2023-07-24T01:44:54;2.75;;;1.75;;
16784;SDS011;8509;52.178;5.404;2023-07-24T01:47:20;5.55;;;1.77;;
16784;SDS011;8509;52.178;5.404;2023-07-24T01:49:47;2.22;;;1.63;;
16784;SDS011;8509;52.178;5.404;2023-07-24T01:52:13;3.28;;;1.90;;
16784;SDS011;8509;52.178;5.404;2023-07-24T01:54:39;1.95;;;1.17;;
16784;SDS011;8509;52.178;5.404;2023-07-24T01:57:04;2.60;;;1.50;;
16784;SDS011;8509;52.178;5.404;2023-07-24T01:59:30;1.85;;;1.42;;
16784;SDS011;8509;52.178;5.404;2023-07-24T02:01:56;2.35;;;1.60;;
16784;SDS011;8509;52.178;5.404;2023-07-24T02:04:22;2.33;;;1.20;;
16784;SDS011;8509;52.178;5.404;2023-07-24T02:06:48;2.70;;;1.58;;
16784;SDS011;8509;52.178;5.404;2023-07-24T02:09:14;2.22;;;1.67;;
16784;SDS011;8509;52.178;5.404;2023-07-24T02:11:40;1.95;;;1.33;;
16784;SDS011;8509;52.178;5.404;2023-07-24T02:14:06;3.10;;;1.27;;
16784;SDS011;8509;52.178;5.404;2023-07-24T02:16:32;1.77;;;1.50;;
16784;SDS011;8509;52.178;5.404;2023-07-24T02:18:58;2.72;;;1.73;;
16784;SDS011;8509;52.178;5.404;2023-07-24T02:21:24;1.60;;;1.33;;
16784;SDS011;8509;52.178;5.404;2023-07-24T02:23:50;2.17;;;1.40;;
16784;SDS011;8509;52.178;5.404;2023-07-24T02:26:15;1.75;;;1.33;;
16784;SDS011;8509;52.178;5.404;2023-07-24T02:28:41;1.77;;;1.13;;
16784;SDS011;8509;52.178;5.404;2023-07-24T02:31:07;1.98;;;1.30;;
16784;SDS011;8509;52.178;5.404;2023-07-24T02:33:33;1.77;;;1.13;;
16784;SDS011;8509;52.178;5.404;2023-07-24T02:36:00;1.80;;;1.38;;
16784;SDS011;8509;52.178;5.404;2023-07-24T02:38:26;2.08;;;1.60;;
16784;SDS011;8509;52.178;5.404;2023-07-24T02:40:52;2.25;;;1.50;;
16784;SDS011;8509;52.178;5.404;2023-07-24T02:43:18;2.35;;;1.50;;
16784;SDS011;8509;52.178;5.404;2023-07-24T02:45:43;1.40;;;1.08;;
16784;SDS011;8509;52.178;5.404;2023-07-24T02:48:09;2.05;;;1.42;;
16784;SDS011;8509;52.178;5.404;2023-07-24T02:50:34;1.42;;;1.33;;
16784;SDS011;8509;52.178;5.404;2023-07-24T02:53:00;2.20;;;1.35;;
16784;SDS011;8509;52.178;5.404;2023-07-24T02:55:28;2.13;;;1.42;;
16784;SDS011;8509;52.178;5.404;2023-07-24T02:57:53;2.25;;;1.52;;
16784;SDS011;8509;52.178;5.404;2023-07-24T03:00:19;2.30;;;1.38;;
16784;SDS011;8509;52.178;5.404;2023-07-24T03:02:45;1.88;;;1.30;;
16784;SDS011;8509;52.178;5.404;2023-07-24T03:05:10;2.22;;;1.67;;
16784;SDS011;8509;52.178;5.404;2023-07-24T03:07:36;1.05;;;0.90;;
16784;SDS011;8509;52.178;5.404;2023-07-24T03:10:02;2.83;;;1.88;;
16784;SDS011;8509;52.178;5.404;2023-07-24T03:12:28;2.15;;;1.80;;
16784;SDS011;8509;52.178;5.404;2023-07-24T03:14:54;4.18;;;1.98;;
16784;SDS011;8509;52.178;5.404;2023-07-24T03:17:19;2.45;;;1.50;;
16784;SDS011;8509;52.178;5.404;2023-07-24T03:19:45;3.20;;;1.80;;
16784;SDS011;8509;52.178;5.404;2023-07-24T03:22:13;3.08;;;2.00;;
16784;SDS011;8509;52.178;5.404;2023-07-24T03:24:39;3.17;;;1.73;;
16784;SDS011;8509;52.178;5.404;2023-07-24T03:27:04;2.85;;;1.83;;
16784;SDS011;8509;52.178;5.404;2023-07-24T03:29:30;2.40;;;1.42;;
16784;SDS011;8509;52.178;5.404;2023-07-24T03:31:55;3.30;;;1.80;;
16784;SDS011;8509;52.178;5.404;2023-07-24T03:34:21;2.65;;;1.70;;
16784;SDS011;8509;52.178;5.404;2023-07-24T03:36:47;2.85;;;1.95;;
16784;SDS011;8509;52.178;5.404;2023-07-24T03:39:12;1.85;;;1.60;;
16784;SDS011;8509;52.178;5.404;2023-07-24T03:41:38;1.70;;;1.38;;
16784;SDS011;8509;52.178;5.404;2023-07-24T03:44:05;2.85;;;2.25;;
16784;SDS011;8509;52.178;5.404;2023-07-24T03:46:31;2.30;;;1.77;;
16784;SDS011;8509;52.178;5.404;2023-07-24T03:48:57;3.80;;;1.75;;
16784;SDS011;8509;52.178;5.404;2023-07-24T03:51:23;4.80;;;2.08;;
16784;SDS011;8509;52.178;5.404;2023-07-24T03:53:49;4.65;;;1.77;;
16784;SDS011;8509;52.178;5.404;2023-07-24T03:56:14;2.38;;;1.67;;
16784;SDS011;8509;52.178;5.404;2023-07-24T03:58:40;5.38;;;2.40;;
16784;SDS011;8509;52.178;5.404;2023-07-24T04:01:06;2.60;;;2.05;;
16784;SDS011;8509;52.178;5.404;2023-07-24T04:03:33;2.85;;;1.98;;
16784;SDS011;8509;52.178;5.404;2023-07-24T04:05:58;2.88;;;1.75;;
16784;SDS011;8509;52.178;5.404;2023-07-24T04:08:24;3.88;;;2.42;;
16784;SDS011;8509;52.178;5.404;2023-07-24T04:10:50;3.15;;;2.05;;
16784;SDS011;8509;52.178;5.404;2023-07-24T04:13:15;4.22;;;2.22;;
16784;SDS011;8509;52.178;5.404;2023-07-24T04:15:41;3.22;;;1.52;;
16784;SDS011;8509;52.178;5.404;2023-07-24T04:18:07;3.30;;;1.83;;
16784;SDS011;8509;52.178;5.404;2023-07-24T04:20:32;3.35;;;2.28;;
16784;SDS011;8509;52.178;5.404;2023-07-24T04:22:58;3.05;;;2.03;;
16784;SDS011;8509;52.178;5.404;2023-07-24T04:25:23;4.00;;;2.65;;
16784;SDS011;8509;52.178;5.404;2023-07-24T04:27:49;3.90;;;2.03;;
16784;SDS011;8509;52.178;5.404;2023-07-24T04:30:15;2.90;;;1.90;;
16784;SDS011;8509;52.178;5.404;2023-07-24T04:32:41;4.00;;;2.45;;
16784;SDS011;8509;52.178;5.404;2023-07-24T04:35:07;2.55;;;1.95;;
16784;SDS011;8509;52.178;5.404;2023-07-24T04:37:33;2.60;;;1.92;;
16784;SDS011;8509;52.178;5.404;2023-07-24T04:39:59;3.30;;;1.83;;
16784;SDS011;8509;52.178;5.404;2023-07-24T04:42:24;2.42;;;1.77;;
16784;SDS011;8509;52.178;5.404;2023-07-24T04:44:50;4.18;;;2.17;;
16784;SDS011;8509;52.178;5.404;2023-07-24T04:47:16;3.88;;;2.55;;
16784;SDS011;8509;52.178;5.404;2023-07-24T04:49:42;3.83;;;1.92;;
16784;SDS011;8509;52.178;5.404;2023-07-24T04:52:08;4.10;;;2.13;;
16784;SDS011;8509;52.178;5.404;2023-07-24T04:54:34;7.43;;;2.75;;
16784;SDS011;8509;52.178;5.404;2023-07-24T04:56:59;5.75;;;1.88;;
16784;SDS011;8509;52.178;5.404;2023-07-24T04:59:25;3.05;;;2.15;;
16784;SDS011;8509;52.178;5.404;2023-07-24T05:01:52;3.67;;;1.88;;
16784;SDS011;8509;52.178;5.404;2023-07-24T05:04:17;3.33;;;1.95;;
16784;SDS011;8509;52.178;5.404;2023-07-24T05:06:43;2.58;;;1.67;;
16784;SDS011;8509;52.178;5.404;2023-07-24T05:09:09;3.00;;;1.88;;
16784;SDS011;8509;52.178;5.404;2023-07-24T05:11:34;3.30;;;1.92;;
16784;SDS011;8509;52.178;5.404;2023-07-24T05:14:00;3.88;;;1.98;;
16784;SDS011;8509;52.178;5.404;2023-07-24T05:16:25;2.80;;;2.05;;
16784;SDS011;8509;52.178;5.404;2023-07-24T05:18:51;2.90;;;1.77;;
16784;SDS011;8509;52.178;5.404;2023-07-24T05:21:17;2.67;;;1.67;;
16784;SDS011;8509;52.178;5.404;2023-07-24T05:23:42;3.00;;;1.73;;
16784;SDS011;8509;52.178;5.404;2023-07-24T05:26:08;3.90;;;2.08;;
16784;SDS011;8509;52.178;5.404;2023-07-24T05:28:33;3.97;;;2.08;;
16784;SDS011;8509;52.178;5.404;2023-07-24T05:30:59;3.75;;;2.13;;
16784;SDS011;8509;52.178;5.404;2023-07-24T05:33:27;8.35;;;2.65;;
16784;SDS011;8509;52.178;5.404;2023-07-24T05:35:57;4.05;;;2.13;;
16784;SDS011;8509;52.178;5.404;2023-07-24T05:38:26;4.22;;;2.03;;
16784;SDS011;8509;52.178;5.404;2023-07-24T05:40:58;4.75;;;2.88;;
16784;SDS011;8509;52.178;5.404;2023-07-24T05:43:25;4.45;;;2.45;;
16784;SDS011;8509;52.178;5.404;2023-07-24T05:45:52;3.50;;;2.17;;
16784;SDS011;8509;52.178;5.404;2023-07-24T05:48:18;2.25;;;1.70;;
16784;SDS011;8509;52.178;5.404;2023-07-24T05:50:43;5.10;;;2.33;;
16784;SDS011;8509;52.178;5.404;2023-07-24T05:53:09;3.17;;;2.22;;
16784;SDS011;8509;52.178;5.404;2023-07-24T05:55:35;3.67;;;2.15;;
16784;SDS011;8509;52.178;5.404;2023-07-24T05:58:01;4.28;;;1.88;;
16784;SDS011;8509;52.178;5.404;2023-07-24T06:00:27;2.53;;;1.70;;
16784;SDS011;8509;52.178;5.404;2023-07-24T06:02:53;3.28;;;1.75;;
16784;SDS011;8509;52.178;5.404;2023-07-24T06:05:19;2.60;;;1.60;;
16784;SDS011;8509;52.178;5.404;2023-07-24T06:07:45;3.28;;;1.98;;
16784;SDS011;8509;52.178;5.404;2023-07-24T06:10:14;3.55;;;2.50;;
16784;SDS011;8509;52.178;5.404;2023-07-24T06:12:40;2.45;;;1.73;;
16784;SDS011;8509;52.178;5.404;2023-07-24T06:15:06;2.97;;;2.08;;
16784;SDS011;8509;52.178;5.404;2023-07-24T06:17:32;1.30;;;1.15;;
16784;SDS011;8509;52.178;5.404;2023-07-24T06:19:57;4.07;;;1.83;;
16784;SDS011;8509;52.178;5.404;2023-07-24T06:22:23;1.77;;;1.45;;
16784;SDS011;8509;52.178;5.404;2023-07-24T06:24:49;1.98;;;1.30;;
16784;SDS011;8509;52.178;5.404;2023-07-24T06:27:15;1.05;;;0.95;;
16784;SDS011;8509;52.178;5.404;2023-07-24T06:29:41;1.02;;;0.93;;
16784;SDS011;8509;52.178;5.404;2023-07-24T06:32:08;0.68;;;0.60;;
16784;SDS011;8509;52.178;5.404;2023-07-24T06:34:34;0.98;;;0.85;;
16784;SDS011;8509;52.178;5.404;2023-07-24T06:37:00;1.17;;;1.05;;
16784;SDS011;8509;52.178;5.404;2023-07-24T06:39:26;0.93;;;0.80;;
16784;SDS011;8509;52.178;5.404;2023-07-24T06:41:58;0.73;;;0.70;;
16784;SDS011;8509;52.178;5.404;2023-07-24T06:44:24;0.77;;;0.77;;
16784;SDS011;8509;52.178;5.404;2023-07-24T06:46:49;0.60;;;0.60;;
16784;SDS011;8509;52.178;5.404;2023-07-24T06:49:17;0.82;;;0.77;;
16784;SDS011;8509;52.178;5.404;2023-07-24T06:51:43;1.08;;;0.88;;
16784;SDS011;8509;52.178;5.404;2023-07-24T06:54:09;1.33;;;0.82;;
16784;SDS011;8509;52.178;5.404;2023-07-24T06:56:34;1.13;;;0.98;;
16784;SDS011;8509;52.178;5.404;2023-07-24T06:59:01;2.85;;;1.25;;
16784;SDS011;8509;52.178;5.404;2023-07-24T07:01:26;0.95;;;0.75;;
16784;SDS011;8509;52.178;5.404;2023-07-24T07:03:52;1.48;;;1.27;;
16784;SDS011;8509;52.178;5.404;2023-07-24T07:06:19;1.42;;;0.70;;
16784;SDS011;8509;52.178;5.404;2023-07-24T07:08:44;0.77;;;0.77;;
16784;SDS011;8509;52.178;5.404;2023-07-24T07:11:10;1.67;;;0.60;;
16784;SDS011;8509;52.178;5.404;2023-07-24T07:13:36;0.60;;;0.60;;
16784;SDS011;8509;52.178;5.404;2023-07-24T07:16:02;0.85;;;0.80;;
16784;SDS011;8509;52.178;5.404;2023-07-24T07:18:27;1.40;;;0.80;;
16784;SDS011;8509;52.178;5.404;2023-07-24T07:20:53;0.77;;;0.68;;
16784;SDS011;8509;52.178;5.404;2023-07-24T07:23:19;1.15;;;0.77;;
16784;SDS011;8509;52.178;5.404;2023-07-24T07:25:45;0.93;;;0.85;;
16784;SDS011;8509;52.178;5.404;2023-07-24T07:28:12;0.80;;;0.80;;
16784;SDS011;8509;52.178;5.404;2023-07-24T07:30:38;1.08;;;0.90;;
16784;SDS011;8509;52.178;5.404;2023-07-24T07:33:03;0.93;;;0.70;;
16784;SDS011;8509;52.178;5.404;2023-07-24T07:35:31;2.08;;;1.35;;
16784;SDS011;8509;52.178;5.404;2023-07-24T07:37:57;1.15;;;1.05;;
16784;SDS011;8509;52.178;5.404;2023-07-24T07:40:23;0.60;;;0.60;;
16784;SDS011;8509;52.178;5.404;2023-07-24T07:42:49;0.55;;;0.55;;
16784;SDS011;8509;52.178;5.404;2023-07-24T07:45:15;1.27;;;0.75;;
16784;SDS011;8509;52.178;5.404;2023-07-24T07:47:42;1.73;;;0.80;;
16784;SDS011;8509;52.178;5.404;2023-07-24T07:50:07;0.65;;;0.65;;
16784;SDS011;8509;52.178;5.404;2023-07-24T07:52:33;1.80;;;0.98;;
16784;SDS011;8509;52.178;5.404;2023-07-24T07:54:59;0.95;;;0.68;;
16784;SDS011;8509;52.178;5.404;2023-07-24T07:57:25;1.38;;;0.82;;
16784;SDS011;8509;52.178;5.404;2023-07-24T07:59:50;0.68;;;0.68;;
16784;SDS011;8509;52.178;5.404;2023-07-24T08:02:16;1.27;;;0.70;;
16784;SDS011;8509;52.178;5.404;2023-07-24T08:04:41;1.02;;;0.90;;
16784;SDS011;8509;52.178;5.404;2023-07-24T08:07:07;0.60;;;0.60;;
16784;SDS011;8509;52.178;5.404;2023-07-24T08:09:33;1.20;;;1.10;;
16784;SDS011;8509;52.178;5.404;2023-07-24T08:11:58;0.88;;;0.88;;
16784;SDS011;8509;52.178;5.404;2023-07-24T08:14:24;0.90;;;0.88;;
16784;SDS011;8509;52.178;5.404;2023-07-24T08:16:50;1.25;;;1.15;;
16784;SDS011;8509;52.178;5.404;2023-07-24T08:19:16;0.68;;;0.60;;
16784;SDS011;8509;52.178;5.404;2023-07-24T08:21:42;1.42;;;1.05;;
16784;SDS011;8509;52.178;5.404;2023-07-24T08:24:07;0.77;;;0.70;;
16784;SDS011;8509;52.178;5.404;2023-07-24T08:26:33;1.55;;;1.17;;
16784;SDS011;8509;52.178;5.404;2023-07-24T08:28:58;0.68;;;0.68;;
16784;SDS011;8509;52.178;5.404;2023-07-24T08:31:24;0.98;;;0.75;;
16784;SDS011;8509;52.178;5.404;2023-07-24T08:33:50;0.95;;;0.70;;
16784;SDS011;8509;52.178;5.404;2023-07-24T08:36:15;0.85;;;0.85;;
16784;SDS011;8509;52.178;5.404;2023-07-24T08:38:41;1.08;;;0.90;;
16784;SDS011;8509;52.178;5.404;2023-07-24T08:41:11;0.95;;;0.88;;
16784;SDS011;8509;52.178;5.404;2023-07-24T08:43:37;0.98;;;0.88;;
16784;SDS011;8509;52.178;5.404;2023-07-24T08:46:05;0.80;;;0.80;;
16784;SDS011;8509;52.178;5.404;2023-07-24T08:48:35;2.75;;;1.33;;
16784;SDS011;8509;52.178;5.404;2023-07-24T08:51:06;1.08;;;0.98;;
16784;SDS011;8509;52.178;5.404;2023-07-24T08:53:33;1.73;;;0.70;;
16784;SDS011;8509;52.178;5.404;2023-07-24T08:56:01;2.90;;;1.20;;
16784;SDS011;8509;52.178;5.404;2023-07-24T08:58:28;0.63;;;0.63;;
16784;SDS011;8509;52.178;5.404;2023-07-24T09:00:54;1.38;;;0.93;;
16784;SDS011;8509;52.178;5.404;2023-07-24T09:03:21;0.85;;;0.80;;
16784;SDS011;8509;52.178;5.404;2023-07-24T09:05:46;0.85;;;0.85;;
16784;SDS011;8509;52.178;5.404;2023-07-24T09:08:12;0.68;;;0.68;;
16784;SDS011;8509;52.178;5.404;2023-07-24T09:10:38;0.70;;;0.70;;
16784;SDS011;8509;52.178;5.404;2023-07-24T09:13:04;0.80;;;0.80;;
16784;SDS011;8509;52.178;5.404;2023-07-24T09:15:39;0.95;;;0.60;;
16784;SDS011;8509;52.178;5.404;2023-07-24T09:18:09;0.85;;;0.75;;
16784;SDS011;8509;52.178;5.404;2023-07-24T09:20:39;0.60;;;0.60;;
16784;SDS011;8509;52.178;5.404;2023-07-24T09:23:05;1.30;;;1.00;;
16784;SDS011;8509;52.178;5.404;2023-07-24T09:25:33;1.38;;;0.80;;
16784;SDS011;8509;52.178;5.404;2023-07-24T09:28:00;1.13;;;0.70;;
16784;SDS011;8509;52.178;5.404;2023-07-24T09:30:26;1.13;;;0.70;;
16784;SDS011;8509;52.178;5.404;2023-07-24T09:32:52;0.70;;;0.70;;
16784;SDS011;8509;52.178;5.404;2023-07-24T09:35:18;0.77;;;0.77;;
16784;SDS011;8509;52.178;5.404;2023-07-24T09:37:45;0.82;;;0.82;;
16784;SDS011;8509;52.178;5.404;2023-07-24T09:40:11;2.75;;;1.20;;
16784;SDS011;8509;52.178;5.404;2023-07-24T09:42:39;1.00;;;0.90;;
16784;SDS011;8509;52.178;5.404;2023-07-24T09:45:05;1.10;;;1.00;;
16784;SDS011;8509;52.178;5.404;2023-07-24T09:47:33;2.10;;;0.80;;
16784;SDS011;8509;52.178;5.404;2023-07-24T09:49:59;0.73;;;0.50;;
16784;SDS011;8509;52.178;5.404;2023-07-24T09:52:27;0.93;;;0.90;;
16784;SDS011;8509;52.178;5.404;2023-07-24T09:57:36;1.27;;;0.90;;
16784;SDS011;8509;52.178;5.404;2023-07-24T10:00:03;1.13;;;0.88;;
16784;SDS011;8509;52.178;5.404;2023-07-24T10:02:29;0.70;;;0.70;;
16784;SDS011;8509;52.178;5.404;2023-07-24T10:04:55;3.80;;;1.45;;
16784;SDS011;8509;52.178;5.404;2023-07-24T10:07:22;0.63;;;0.63;;
16784;SDS011;8509;52.178;5.404;2023-07-24T10:09:49;1.05;;;0.95;;
16784;SDS011;8509;52.178;5.404;2023-07-24T10:12:16;0.77;;;0.77;;
16784;SDS011;8509;52.178;5.404;2023-07-24T10:14:46;0.70;;;0.70;;
16784;SDS011;8509;52.178;5.404;2023-07-24T10:17:12;1.25;;;1.15;;
16784;SDS011;8509;52.178;5.404;2023-07-24T10:19:41;0.55;;;0.55;;
16784;SDS011;8509;52.178;5.404;2023-07-24T10:22:17;0.90;;;0.90;;
16784;SDS011;8509;52.178;5.404;2023-07-24T10:24:44;0.70;;;0.70;;
16784;SDS011;8509;52.178;5.404;2023-07-24T10:27:11;1.05;;;0.85;;
16784;SDS011;8509;52.178;5.404;2023-07-24T10:29:37;1.67;;;1.33;;
16784;SDS011;8509;52.178;5.404;2023-07-24T10:32:04;4.60;;;1.45;;
16784;SDS011;8509;52.178;5.404;2023-07-24T10:34:41;0.73;;;0.65;;
16784;SDS011;8509;52.178;5.404;2023-07-24T10:37:07;0.70;;;0.70;;
16784;SDS011;8509;52.178;5.404;2023-07-24T10:39:38;1.13;;;1.02;;
16784;SDS011;8509;52.178;5.404;2023-07-24T10:42:09;1.15;;;1.05;;
16784;SDS011;8509;52.178;5.404;2023-07-24T10:44:36;0.73;;;0.70;;
16784;SDS011;8509;52.178;5.404;2023-07-24T10:47:02;0.60;;;0.60;;
16784;SDS011;8509;52.178;5.404;2023-07-24T10:49:28;1.20;;;1.10;;
16784;SDS011;8509;52.178;5.404;2023-07-24T10:51:57;0.50;;;0.50;;
16784;SDS011;8509;52.178;5.404;2023-07-24T10:54:23;1.05;;;0.80;;
16784;SDS011;8509;52.178;5.404;2023-07-24T10:56:49;2.20;;;0.77;;
16784;SDS011;8509;52.178;5.404;2023-07-24T10:59:14;2.05;;;0.85;;
16784;SDS011;8509;52.178;5.404;2023-07-24T11:01:40;0.70;;;0.60;;
16784;SDS011;8509;52.178;5.404;2023-07-24T11:04:06;1.77;;;1.17;;
16784;SDS011;8509;52.178;5.404;2023-07-24T11:06:33;0.90;;;0.85;;
16784;SDS011;8509;52.178;5.404;2023-07-24T11:08:59;0.60;;;0.60;;
16784;SDS011;8509;52.178;5.404;2023-07-24T11:11:29;0.93;;;0.85;;
16784;SDS011;8509;52.178;5.404;2023-07-24T11:13:58;2.92;;;2.05;;
16784;SDS011;8509;52.178;5.404;2023-07-24T11:16:25;1.00;;;0.93;;
16784;SDS011;8509;52.178;5.404;2023-07-24T11:18:51;0.80;;;0.80;;
16784;SDS011;8509;52.178;5.404;2023-07-24T11:21:17;0.98;;;0.80;;
16784;SDS011;8509;52.178;5.404;2023-07-24T11:23:50;0.70;;;0.70;;
16784;SDS011;8509;52.178;5.404;2023-07-24T11:26:20;0.82;;;0.80;;
16784;SDS011;8509;52.178;5.404;2023-07-24T11:28:47;3.17;;;1.05;;
16784;SDS011;8509;52.178;5.404;2023-07-24T11:31:13;0.63;;;0.63;;
16784;SDS011;8509;52.178;5.404;2023-07-24T11:33:40;1.02;;;0.75;;
16784;SDS011;8509;52.178;5.404;2023-07-24T11:36:07;0.80;;;0.80;;
16784;SDS011;8509;52.178;5.404;2023-07-24T11:38:34;1.27;;;1.17;;
16784;SDS011;8509;52.178;5.404;2023-07-24T11:41:01;0.70;;;0.70;;
16784;SDS011;8509;52.178;5.404;2023-07-24T11:43:27;1.13;;;1.02;;
16784;SDS011;8509;52.178;5.404;2023-07-24T11:45:53;1.80;;;0.90;;
16784;SDS011;8509;52.178;5.404;2023-07-24T11:48:19;1.10;;;1.08;;
16784;SDS011;8509;52.178;5.404;2023-07-24T11:50:49;0.80;;;0.80;;
16784;SDS011;8509;52.178;5.404;2023-07-24T11:53:20;0.57;;;0.57;;
16784;SDS011;8509;52.178;5.404;2023-07-24T11:55:47;0.53;;;0.53;;
16784;SDS011;8509;52.178;5.404;2023-07-24T11:58:14;1.77;;;0.93;;
16784;SDS011;8509;52.178;5.404;2023-07-24T12:00:41;0.95;;;0.88;;
16784;SDS011;8509;52.178;5.404;2023-07-24T12:03:07;0.90;;;0.88;;
16784;SDS011;8509;52.178;5.404;2023-07-24T12:08:06;1.58;;;0.80;;
16784;SDS011;8509;52.178;5.404;2023-07-24T12:10:35;1.52;;;1.38;;
16784;SDS011;8509;52.178;5.404;2023-07-24T12:13:01;0.77;;;0.77;;
16784;SDS011;8509;52.178;5.404;2023-07-24T12:15:27;1.55;;;0.75;;
16784;SDS011;8509;52.178;5.404;2023-07-24T12:17:53;0.95;;;0.93;;
16784;SDS011;8509;52.178;5.404;2023-07-24T12:20:19;2.97;;;1.63;;
16784;SDS011;8509;52.178;5.404;2023-07-24T12:22:45;0.80;;;0.80;;
16784;SDS011;8509;52.178;5.404;2023-07-24T12:25:11;1.20;;;0.93;;
16784;SDS011;8509;52.178;5.404;2023-07-24T12:27:37;0.73;;;0.73;;
16784;SDS011;8509;52.178;5.404;2023-07-24T12:30:04;1.70;;;1.35;;
16784;SDS011;8509;52.178;5.404;2023-07-24T12:32:31;0.95;;;0.70;;
16784;SDS011;8509;52.178;5.404;2023-07-24T12:34:57;0.63;;;0.63;;
16784;SDS011;8509;52.178;5.404;2023-07-24T12:37:22;1.23;;;1.08;;
16784;SDS011;8509;52.178;5.404;2023-07-24T12:39:48;1.90;;;1.05;;
16784;SDS011;8509;52.178;5.404;2023-07-24T12:42:14;1.45;;;1.35;;
16784;SDS011;8509;52.178;5.404;2023-07-24T12:44:41;2.10;;;1.17;;
16784;SDS011;8509;52.178;5.404;2023-07-24T12:47:07;1.15;;;1.05;;
16784;SDS011;8509;52.178;5.404;2023-07-24T12:49:33;2.63;;;1.55;;
16784;SDS011;8509;52.178;5.404;2023-07-24T12:51:59;2.10;;;1.73;;
16784;SDS011;8509;52.178;5.404;2023-07-24T12:54:25;1.50;;;1.40;;
16784;SDS011;8509;52.178;5.404;2023-07-24T12:56:52;4.72;;;1.02;;
16784;SDS011;8509;52.178;5.404;2023-07-24T12:59:18;1.38;;;1.17;;
16784;SDS011;8509;52.178;5.404;2023-07-24T13:01:44;1.10;;;1.00;;
16784;SDS011;8509;52.178;5.404;2023-07-24T13:04:10;1.85;;;0.93;;
16784;SDS011;8509;52.178;5.404;2023-07-24T13:06:36;0.55;;;0.55;;
16784;SDS011;8509;52.178;5.404;2023-07-24T13:09:01;0.82;;;0.60;;
16784;SDS011;8509;52.178;5.404;2023-07-24T13:11:28;1.38;;;0.88;;
16784;SDS011;8509;52.178;5.404;2023-07-24T13:13:54;0.80;;;0.70;;
16784;SDS011;8509;52.178;5.404;2023-07-24T13:16:20;2.75;;;0.80;;
16784;SDS011;8509;52.178;5.404;2023-07-24T13:18:46;1.67;;;0.95;;
16784;SDS011;8509;52.178;5.404;2023-07-24T13:21:11;1.30;;;1.17;;
16784;SDS011;8509;52.178;5.404;2023-07-24T13:23:38;1.42;;;1.00;;
16784;SDS011;8509;52.178;5.404;2023-07-24T13:26:05;2.58;;;2.05;;
16784;SDS011;8509;52.178;5.404;2023-07-24T13:28:30;3.75;;;1.45;;
16784;SDS011;8509;52.178;5.404;2023-07-24T13:30:56;1.42;;;1.20;;
16784;SDS011;8509;52.178;5.404;2023-07-24T13:33:22;1.90;;;1.10;;
16784;SDS011;8509;52.178;5.404;2023-07-24T13:35:48;1.42;;;1.33;;
16784;SDS011;8509;52.178;5.404;2023-07-24T13:38:15;1.75;;;1.35;;
16784;SDS011;8509;52.178;5.404;2023-07-24T13:40:41;1.42;;;1.25;;
16784;SDS011;8509;52.178;5.404;2023-07-24T13:43:07;1.75;;;1.42;;
16784;SDS011;8509;52.178;5.404;2023-07-24T13:45:33;1.73;;;1.08;;
16784;SDS011;8509;52.178;5.404;2023-07-24T13:47:59;1.40;;;1.23;;
16784;SDS011;8509;52.178;5.404;2023-07-24T13:50:25;1.15;;;1.05;;
16784;SDS011;8509;52.178;5.404;2023-07-24T13:52:50;1.58;;;1.10;;
16784;SDS011;8509;52.178;5.404;2023-07-24T13:55:16;2.75;;;1.05;;
16784;SDS011;8509;52.178;5.404;2023-07-24T13:57:42;1.30;;;1.00;;
16784;SDS011;8509;52.178;5.404;2023-07-24T14:00:08;1.23;;;1.13;;
16784;SDS011;8509;52.178;5.404;2023-07-24T14:02:34;1.00;;;0.95;;
16784;SDS011;8509;52.178;5.404;2023-07-24T14:04:59;2.03;;;0.93;;
16784;SDS011;8509;52.178;5.404;2023-07-24T14:07:25;1.00;;;0.80;;
16784;SDS011;8509;52.178;5.404;2023-07-24T14:09:50;0.80;;;0.80;;
16784;SDS011;8509;52.178;5.404;2023-07-24T14:12:16;0.82;;;0.73;;
16784;SDS011;8509;52.178;5.404;2023-07-24T14:14:42;0.60;;;0.60;;
16784;SDS011;8509;52.178;5.404;2023-07-24T14:17:08;0.68;;;0.68;;
16784;SDS011;8509;52.178;5.404;2023-07-24T14:19:33;0.50;;;0.50;;
16784;SDS011;8509;52.178;5.404;2023-07-24T14:21:59;0.52;;;0.52;;
16784;SDS011;8509;52.178;5.404;2023-07-24T14:24:26;0.60;;;0.60;;
16784;SDS011;8509;52.178;5.404;2023-07-24T14:26:52;0.40;;;0.40;;
16784;SDS011;8509;52.178;5.404;2023-07-24T14:29:17;0.40;;;0.40;;
16784;SDS011;8509;52.178;5.404;2023-07-24T14:31:44;0.40;;;0.40;;
16784;SDS011;8509;52.178;5.404;2023-07-24T14:34:09;1.50;;;0.98;;
16784;SDS011;8509;52.178;5.404;2023-07-24T14:36:37;0.70;;;0.70;;
16784;SDS011;8509;52.178;5.404;2023-07-24T14:39:04;2.63;;;0.70;;
16784;SDS011;8509;52.178;5.404;2023-07-24T14:41:30;0.30;;;0.30;;
16784;SDS011;8509;52.178;5.404;2023-07-24T14:43:55;0.98;;;0.57;;
16784;SDS011;8509;52.178;5.404;2023-07-24T14:46:21;0.82;;;0.50;;
16784;SDS011;8509;52.178;5.404;2023-07-24T14:48:49;0.57;;;0.57;;
16784;SDS011;8509;52.178;5.404;2023-07-24T14:51:15;1.90;;;1.02;;
16784;SDS011;8509;52.178;5.404;2023-07-24T14:53:40;0.30;;;0.30;;
16784;SDS011;8509;52.178;5.404;2023-07-24T14:56:08;0.45;;;0.45;;
16784;SDS011;8509;52.178;5.404;2023-07-24T14:58:33;0.45;;;0.45;;
16784;SDS011;8509;52.178;5.404;2023-07-24T15:00:59;0.80;;;0.50;;
16784;SDS011;8509;52.178;5.404;2023-07-24T15:03:25;1.27;;;0.73;;